sensor_id;sensor_type;location;lat;lon;timestamp;pressure;altitude;pressure_sealevel;temperature;humidity
6349;BME280;3207;42.648;23.406;2022-10-31T00:01:24;100619.00;;;14.11;100.00
6349;BME280;3207;42.648;23.406;2022-10-31T00:03:53;100621.91;;;14.08;100.00
6349;BME280;3207;42.648;23.406;2022-10-31T00:06:20;100622.34;;;14.02;100.00
6349;BME280;3207;42.648;23.406;2022-10-31T00:08:51;100627.59;;;14.02;100.00
6349;BME280;3207;42.648;23.406;2022-10-31T00:11:18;100622.47;;;14.01;100.00
6349;BME280;3207;42.648;23.406;2022-10-31T00:13:45;100624.13;;;14.02;100.00
6349;BME280;3207;42.648;23.406;2022-10-31T00:16:17;100633.69;;;14.03;100.00
6349;BME280;3207;42.648;23.406;2022-10-31T00:18:44;100627.50;;;14.04;100.00
6349;BME280;3207;42.648;23.406;2022-10-31T00:21:15;100629.28;;;14.03;100.00
6349;BME280;3207;42.648;23.406;2022-10-31T00:23:42;100626.66;;;14.03;100.00
6349;BME280;3207;42.648;23.406;2022-10-31T00:26:08;100630.25;;;14.02;100.00
6349;BME280;3207;42.648;23.406;2022-10-31T00:28:35;100625.81;;;14.03;100.00
6349;BME280;3207;42.648;23.406;2022-10-31T00:31:04;100629.28;;;14.03;100.00
6349;BME280;3207;42.648;23.406;2022-10-31T00:33:33;100629.16;;;14.05;100.00
6349;BME280;3207;42.648;23.406;2022-10-31T00:36:00;100630.13;;;14.04;100.00
6349;BME280;3207;42.648;23.406;2022-10-31T00:38:28;100615.91;;;13.95;100.00
6349;BME280;3207;42.648;23.406;2022-10-31T00:40:55;100628.56;;;14.01;100.00
6349;BME280;3207;42.648;23.406;2022-10-31T00:43:22;100625.81;;;14.03;100.00
6349;BME280;3207;42.648;23.406;2022-10-31T00:45:49;100618.41;;;13.97;100.00
6349;BME280;3207;42.648;23.406;2022-10-31T00:48:16;100628.44;;;14.03;100.00
6349;BME280;3207;42.648;23.406;2022-10-31T00:50:43;100622.34;;;14.02;100.00
6349;BME280;3207;42.648;23.406;2022-10-31T00:53:10;100616.25;;;14.02;100.00
6349;BME280;3207;42.648;23.406;2022-10-31T00:55:38;100625.72;;;14.04;100.00
6349;BME280;3207;42.648;23.406;2022-10-31T00:58:05;100610.41;;;13.98;100.00
6349;BME280;3207;42.648;23.406;2022-10-31T01:00:32;100621.50;;;14.02;100.00
6349;BME280;3207;42.648;23.406;2022-10-31T01:02:58;100615.53;;;14.00;100.00
6349;BME280;3207;42.648;23.406;2022-10-31T01:05:25;100613.03;;;13.98;100.00
6349;BME280;3207;42.648;23.406;2022-10-31T01:07:52;100620.31;;;13.95;100.00
6349;BME280;3207;42.648;23.406;2022-10-31T01:10:19;100617.91;;;13.91;100.00
6349;BME280;3207;42.648;23.406;2022-10-31T01:12:48;100618.97;;;13.89;100.00
6349;BME280;3207;42.648;23.406;2022-10-31T01:15:19;100607.16;;;13.83;100.00
6349;BME280;3207;42.648;23.406;2022-10-31T01:17:46;100612.06;;;13.77;100.00
6349;BME280;3207;42.648;23.406;2022-10-31T01:20:15;100607.16;;;13.72;100.00
6349;BME280;3207;42.648;23.406;2022-10-31T01:22:42;100616.94;;;13.70;100.00
6349;BME280;3207;42.648;23.406;2022-10-31T01:25:09;100601.38;;;13.67;100.00
6349;BME280;3207;42.648;23.406;2022-10-31T01:27:36;100605.22;;;13.63;100.00
6349;BME280;3207;42.648;23.406;2022-10-31T01:30:06;100587.88;;;13.49;100.00
6349;BME280;3207;42.648;23.406;2022-10-31T01:32:32;100605.66;;;13.57;100.00
6349;BME280;3207;42.648;23.406;2022-10-31T01:34:59;100604.00;;;13.56;100.00
6349;BME280;3207;42.648;23.406;2022-10-31T01:37:26;100592.50;;;13.46;100.00
6349;BME280;3207;42.648;23.406;2022-10-31T01:39:53;100604.81;;;13.56;100.00
6349;BME280;3207;42.648;23.406;2022-10-31T01:42:21;100601.38;;;13.56;100.00
6349;BME280;3207;42.648;23.406;2022-10-31T01:44:55;100600.66;;;13.54;100.00
6349;BME280;3207;42.648;23.406;2022-10-31T01:47:38;100597.31;;;13.52;100.00
6349;BME280;3207;42.648;23.406;2022-10-31T01:50:12;100599.22;;;13.50;100.00
6349;BME280;3207;42.648;23.406;2022-10-31T01:52:41;100598.38;;;13.49;100.00
6349;BME280;3207;42.648;23.406;2022-10-31T01:55:12;100539.38;;;13.07;100.00
6349;BME280;3207;42.648;23.406;2022-10-31T01:57:43;100593.59;;;13.43;100.00
6349;BME280;3207;42.648;23.406;2022-10-31T02:00:12;100608.41;;;13.44;100.00
6349;BME280;3207;42.648;23.406;2022-10-31T02:02:41;100592.97;;;13.40;100.00
6349;BME280;3207;42.648;23.406;2022-10-31T02:05:10;100600.84;;;13.40;100.00
6349;BME280;3207;42.648;23.406;2022-10-31T02:07:43;100578.59;;;13.22;100.00
6349;BME280;3207;42.648;23.406;2022-10-31T02:10:12;100597.59;;;13.36;100.00
6349;BME280;3207;42.648;23.406;2022-10-31T02:12:39;100596.91;;;13.34;100.00
6349;BME280;3207;42.648;23.406;2022-10-31T02:15:08;100594.28;;;13.34;100.00
6349;BME280;3207;42.648;23.406;2022-10-31T02:17:35;100598.69;;;13.34;100.00
6349;BME280;3207;42.648;23.406;2022-10-31T02:20:12;100595.34;;;13.32;100.00
6349;BME280;3207;42.648;23.406;2022-10-31T02:22:56;100595.78;;;13.26;100.00
6349;BME280;3207;42.648;23.406;2022-10-31T02:25:51;100598.81;;;13.32;100.00
6349;BME280;3207;42.648;23.406;2022-10-31T02:28:38;100595.78;;;13.26;100.00
6349;BME280;3207;42.648;23.406;2022-10-31T02:31:21;100599.88;;;13.30;100.00
6349;BME280;3207;42.648;23.406;2022-10-31T02:33:53;100588.53;;;13.29;100.00
6349;BME280;3207;42.648;23.406;2022-10-31T02:36:26;100586.97;;;13.27;100.00
6349;BME280;3207;42.648;23.406;2022-10-31T02:39:01;100587.22;;;13.24;100.00
6349;BME280;3207;42.648;23.406;2022-10-31T02:41:34;100590.91;;;13.21;100.00
6349;BME280;3207;42.648;23.406;2022-10-31T02:44:08;100584.06;;;13.18;100.00
6349;BME280;3207;42.648;23.406;2022-10-31T02:46:44;100584.28;;;13.15;100.00
6349;BME280;3207;42.648;23.406;2022-10-31T02:49:21;100582.72;;;13.13;100.00
6349;BME280;3207;42.648;23.406;2022-10-31T02:51:49;100582.84;;;13.11;100.00
6349;BME280;3207;42.648;23.406;2022-10-31T02:54:22;100565.97;;;13.03;100.00
6349;BME280;3207;42.648;23.406;2022-10-31T02:56:51;100571.22;;;13.03;100.00
6349;BME280;3207;42.648;23.406;2022-10-31T02:59:21;100570.88;;;13.07;99.99
6349;BME280;3207;42.648;23.406;2022-10-31T03:02:05;100576.97;;;13.08;99.99
6349;BME280;3207;42.648;23.406;2022-10-31T03:07:30;100580.66;;;13.05;99.68
6349;BME280;3207;42.648;23.406;2022-10-31T03:10:04;100579.91;;;13.03;99.61
6349;BME280;3207;42.648;23.406;2022-10-31T03:12:38;100579.91;;;13.03;99.61
6349;BME280;3207;42.648;23.406;2022-10-31T03:15:12;100581.84;;;13.01;99.95
6349;BME280;3207;42.648;23.406;2022-10-31T03:17:50;100580.16;;;13.00;99.73
6349;BME280;3207;42.648;23.406;2022-10-31T03:20:23;100582.91;;;12.99;99.59
6349;BME280;3207;42.648;23.406;2022-10-31T03:22:52;100587.31;;;12.98;99.60
6349;BME280;3207;42.648;23.406;2022-10-31T03:25:19;100589.09;;;12.98;99.81
6349;BME280;3207;42.648;23.406;2022-10-31T03:27:46;100587.31;;;12.98;99.71
6349;BME280;3207;42.648;23.406;2022-10-31T03:30:14;100583.94;;;12.96;99.92
6349;BME280;3207;42.648;23.406;2022-10-31T03:32:47;100594.66;;;12.93;99.67
6349;BME280;3207;42.648;23.406;2022-10-31T03:35:17;100590.38;;;12.92;99.70
6349;BME280;3207;42.648;23.406;2022-10-31T03:37:46;100599.31;;;12.90;99.63
6349;BME280;3207;42.648;23.406;2022-10-31T03:40:15;100591.66;;;12.87;99.84
6349;BME280;3207;42.648;23.406;2022-10-31T03:42:46;100596.91;;;12.87;99.91
6349;BME280;3207;42.648;23.406;2022-10-31T03:45:17;100597.84;;;12.86;100.00
6349;BME280;3207;42.648;23.406;2022-10-31T03:47:48;100587.47;;;12.84;99.94
6349;BME280;3207;42.648;23.406;2022-10-31T03:50:15;100595.34;;;12.84;100.00
6349;BME280;3207;42.648;23.406;2022-10-31T03:52:45;100590.09;;;12.84;100.00
6349;BME280;3207;42.648;23.406;2022-10-31T03:55:18;100590.09;;;12.84;100.00
6349;BME280;3207;42.648;23.406;2022-10-31T03:57:51;100592.72;;;12.84;99.97
6349;BME280;3207;42.648;23.406;2022-10-31T04:00:19;100596.28;;;12.83;100.00
6349;BME280;3207;42.648;23.406;2022-10-31T04:02:52;100594.50;;;12.83;100.00
6349;BME280;3207;42.648;23.406;2022-10-31T04:05:20;100596.41;;;12.81;100.00
6349;BME280;3207;42.648;23.406;2022-10-31T04:07:51;100588.41;;;12.83;100.00
6349;BME280;3207;42.648;23.406;2022-10-31T04:10:21;100597.13;;;12.83;100.00
6349;BME280;3207;42.648;23.406;2022-10-31T04:12:54;100598.06;;;12.82;100.00
6349;BME280;3207;42.648;23.406;2022-10-31T04:15:24;100599.03;;;12.81;100.00
6349;BME280;3207;42.648;23.406;2022-10-31T04:17:55;100590.34;;;12.81;100.00
6349;BME280;3207;42.648;23.406;2022-10-31T04:20:30;100596.41;;;12.81;100.00
6349;BME280;3207;42.648;23.406;2022-10-31T04:22:57;100598.06;;;12.82;100.00
6349;BME280;3207;42.648;23.406;2022-10-31T04:25:23;100600.69;;;12.82;100.00
6349;BME280;3207;42.648;23.406;2022-10-31T04:27:50;100605.09;;;12.82;100.00
6349;BME280;3207;42.648;23.406;2022-10-31T04:30:17;100597.47;;;12.79;100.00
6349;BME280;3207;42.648;23.406;2022-10-31T04:32:44;100602.72;;;12.79;100.00
6349;BME280;3207;42.648;23.406;2022-10-31T04:35:12;100600.94;;;12.79;100.00
6349;BME280;3207;42.648;23.406;2022-10-31T04:37:39;100597.56;;;12.77;100.00
6349;BME280;3207;42.648;23.406;2022-10-31T04:40:06;100592.97;;;12.81;100.00
6349;BME280;3207;42.648;23.406;2022-10-31T04:42:33;100598.19;;;12.81;100.00
6349;BME280;3207;42.648;23.406;2022-10-31T04:45:00;100592.97;;;12.81;99.89
6349;BME280;3207;42.648;23.406;2022-10-31T04:47:27;100594.94;;;12.77;100.00
6349;BME280;3207;42.648;23.406;2022-10-31T04:49:54;100594.13;;;12.77;100.00
6349;BME280;3207;42.648;23.406;2022-10-31T04:52:22;100599.38;;;12.77;100.00
6349;BME280;3207;42.648;23.406;2022-10-31T04:54:49;100601.25;;;12.75;100.00
6349;BME280;3207;42.648;23.406;2022-10-31T04:57:15;100606.50;;;12.75;100.00
6349;BME280;3207;42.648;23.406;2022-10-31T04:59:42;100600.63;;;12.71;100.00
6349;BME280;3207;42.648;23.406;2022-10-31T05:02:09;100587.84;;;12.67;99.84
6349;BME280;3207;42.648;23.406;2022-10-31T05:04:36;100595.72;;;12.67;100.00
6349;BME280;3207;42.648;23.406;2022-10-31T05:07:02;100599.19;;;12.67;100.00
6349;BME280;3207;42.648;23.406;2022-10-31T05:09:30;100596.69;;;12.66;99.98
6349;BME280;3207;42.648;23.406;2022-10-31T05:11:57;100593.09;;;12.67;100.00
6349;BME280;3207;42.648;23.406;2022-10-31T05:14:24;100594.78;;;12.68;100.00
6349;BME280;3207;42.648;23.406;2022-10-31T05:16:51;100590.59;;;12.65;100.00
6349;BME280;3207;42.648;23.406;2022-10-31T05:19:18;100601.91;;;12.66;100.00
6349;BME280;3207;42.648;23.406;2022-10-31T05:21:44;100595.84;;;12.65;100.00
6349;BME280;3207;42.648;23.406;2022-10-31T05:24:11;100586.63;;;12.60;100.00
6349;BME280;3207;42.648;23.406;2022-10-31T05:26:39;100600.44;;;12.62;100.00
6349;BME280;3207;42.648;23.406;2022-10-31T05:29:06;100593.66;;;12.59;100.00
6349;BME280;3207;42.648;23.406;2022-10-31T05:31:33;100603.31;;;12.59;100.00
6349;BME280;3207;42.648;23.406;2022-10-31T05:33:59;100598.28;;;12.56;100.00
6349;BME280;3207;42.648;23.406;2022-10-31T05:36:26;100597.34;;;12.57;100.00
6349;BME280;3207;42.648;23.406;2022-10-31T05:38:53;100607.00;;;12.56;100.00
6349;BME280;3207;42.648;23.406;2022-10-31T05:41:20;100610.56;;;12.55;100.00
6349;BME280;3207;42.648;23.406;2022-10-31T05:43:48;100603.53;;;12.56;100.00
6349;BME280;3207;42.648;23.406;2022-10-31T05:46:15;100603.13;;;12.49;99.76
6349;BME280;3207;42.648;23.406;2022-10-31T05:48:41;100616.94;;;12.51;100.00
6349;BME280;3207;42.648;23.406;2022-10-31T05:51:08;100615.41;;;12.49;99.83
6349;BME280;3207;42.648;23.406;2022-10-31T05:53:35;100616.25;;;12.49;100.00
6349;BME280;3207;42.648;23.406;2022-10-31T05:56:02;100614.47;;;12.50;100.00
6349;BME280;3207;42.648;23.406;2022-10-31T05:58:29;100621.34;;;12.51;100.00
6349;BME280;3207;42.648;23.406;2022-10-31T06:00:57;100628.28;;;12.52;99.81
6349;BME280;3207;42.648;23.406;2022-10-31T06:03:23;100630.91;;;12.52;100.00
6349;BME280;3207;42.648;23.406;2022-10-31T06:05:50;100627.34;;;12.53;100.00
6349;BME280;3207;42.648;23.406;2022-10-31T06:08:17;100630.81;;;12.53;100.00
6349;BME280;3207;42.648;23.406;2022-10-31T06:10:44;100629.84;;;12.54;100.00
6349;BME280;3207;42.648;23.406;2022-10-31T06:13:11;100631.53;;;12.55;100.00
6349;BME280;3207;42.648;23.406;2022-10-31T06:15:37;100637.41;;;12.59;100.00
6349;BME280;3207;42.648;23.406;2022-10-31T06:18:06;100634.06;;;12.57;100.00
6349;BME280;3207;42.648;23.406;2022-10-31T06:20:33;100636.56;;;12.58;100.00
6349;BME280;3207;42.648;23.406;2022-10-31T06:23:00;100636.34;;;12.61;100.00
6349;BME280;3207;42.648;23.406;2022-10-31T06:25:27;100640.53;;;12.64;100.00
6349;BME280;3207;42.648;23.406;2022-10-31T06:27:55;100636.97;;;12.65;100.00
6349;BME280;3207;42.648;23.406;2022-10-31T06:30:22;100642.09;;;12.66;100.00
6349;BME280;3207;42.648;23.406;2022-10-31T06:32:48;100644.53;;;12.69;100.00
6349;BME280;3207;42.648;23.406;2022-10-31T06:35:17;100645.13;;;12.73;99.81
6349;BME280;3207;42.648;23.406;2022-10-31T06:37:51;100644.91;;;12.76;100.00
6349;BME280;3207;42.648;23.406;2022-10-31T06:40:17;100647.31;;;12.79;99.77
6349;BME280;3207;42.648;23.406;2022-10-31T06:42:44;100649.69;;;12.82;99.44
6349;BME280;3207;42.648;23.406;2022-10-31T06:45:11;100654.00;;;12.83;99.68
6349;BME280;3207;42.648;23.406;2022-10-31T06:47:38;100644.97;;;12.87;99.39
6349;BME280;3207;42.648;23.406;2022-10-31T06:50:06;100650.00;;;12.90;99.27
6349;BME280;3207;42.648;23.406;2022-10-31T06:52:34;100655.75;;;12.95;99.05
6349;BME280;3207;42.648;23.406;2022-10-31T06:55:00;100660.16;;;12.95;98.82
6349;BME280;3207;42.648;23.406;2022-10-31T06:57:27;100665.50;;;12.93;98.65
6349;BME280;3207;42.648;23.406;2022-10-31T06:59:54;100660.63;;;12.89;98.36
6349;BME280;3207;42.648;23.406;2022-10-31T07:02:24;100659.56;;;12.91;98.74
6349;BME280;3207;42.648;23.406;2022-10-31T07:04:50;100667.09;;;12.96;98.55
6349;BME280;3207;42.648;23.406;2022-10-31T07:07:17;100665.94;;;13.00;98.47
6349;BME280;3207;42.648;23.406;2022-10-31T07:09:47;100679.53;;;13.05;98.33
6349;BME280;3207;42.648;23.406;2022-10-31T07:12:15;100669.66;;;13.08;98.23
6349;BME280;3207;42.648;23.406;2022-10-31T07:14:42;100678.06;;;13.13;98.28
6349;BME280;3207;42.648;23.406;2022-10-31T07:17:09;100672.50;;;13.18;98.04
6349;BME280;3207;42.648;23.406;2022-10-31T07:19:36;100680.06;;;13.23;97.77
6349;BME280;3207;42.648;23.406;2022-10-31T07:22:02;100684.09;;;13.27;97.48
6349;BME280;3207;42.648;23.406;2022-10-31T07:24:29;100686.31;;;13.33;97.14
6349;BME280;3207;42.648;23.406;2022-10-31T07:26:58;100692.50;;;13.32;96.85
6349;BME280;3207;42.648;23.406;2022-10-31T07:29:25;100686.31;;;13.33;97.09
6349;BME280;3207;42.648;23.406;2022-10-31T07:31:51;100688.94;;;13.33;97.47
6349;BME280;3207;42.648;23.406;2022-10-31T07:34:18;100687.03;;;13.35;96.96
6349;BME280;3207;42.648;23.406;2022-10-31T07:36:45;100688.81;;;13.34;96.90
6349;BME280;3207;42.648;23.406;2022-10-31T07:39:12;100689.66;;;13.35;96.93
6349;BME280;3207;42.648;23.406;2022-10-31T07:41:38;100699.53;;;13.31;96.72
6349;BME280;3207;42.648;23.406;2022-10-31T07:44:07;100688.03;;;13.21;96.60
6349;BME280;3207;42.648;23.406;2022-10-31T07:46:34;100686.47;;;13.18;96.99
6349;BME280;3207;42.648;23.406;2022-10-31T07:49:00;100681.09;;;13.20;97.60
6349;BME280;3207;42.648;23.406;2022-10-31T07:51:27;100678.84;;;13.27;98.19
6349;BME280;3207;42.648;23.406;2022-10-31T07:53:54;100680.59;;;13.39;98.31
6349;BME280;3207;42.648;23.406;2022-10-31T07:56:21;100684.09;;;13.50;98.38
6349;BME280;3207;42.648;23.406;2022-10-31T07:58:48;100688.56;;;13.61;98.59
6349;BME280;3207;42.648;23.406;2022-10-31T08:01:16;100682.41;;;13.73;98.29
6349;BME280;3207;42.648;23.406;2022-10-31T08:03:42;100692.84;;;13.86;98.21
6349;BME280;3207;42.648;23.406;2022-10-31T08:06:09;100672.06;;;13.94;98.00
6349;BME280;3207;42.648;23.406;2022-10-31T08:08:36;100691.31;;;14.06;97.43
6349;BME280;3207;42.648;23.406;2022-10-31T08:11:03;100683.66;;;14.14;97.05
6349;BME280;3207;42.648;23.406;2022-10-31T08:13:29;100683.19;;;14.20;96.47
6349;BME280;3207;42.648;23.406;2022-10-31T08:15:57;100688.22;;;14.23;95.96
6349;BME280;3207;42.648;23.406;2022-10-31T08:18:30;100696.84;;;14.25;95.11
6349;BME280;3207;42.648;23.406;2022-10-31T08:20:57;100680.56;;;14.20;94.87
6349;BME280;3207;42.648;23.406;2022-10-31T08:23:24;100693.25;;;14.26;95.20
6349;BME280;3207;42.648;23.406;2022-10-31T08:25:50;100687.50;;;14.32;94.74
6349;BME280;3207;42.648;23.406;2022-10-31T08:28:17;100686.66;;;14.32;94.57
6349;BME280;3207;42.648;23.406;2022-10-31T08:30:44;100694.44;;;14.33;94.57
6349;BME280;3207;42.648;23.406;2022-10-31T08:33:13;100685.59;;;14.34;94.39
6349;BME280;3207;42.648;23.406;2022-10-31T08:35:41;100684.53;;;14.37;93.74
6349;BME280;3207;42.648;23.406;2022-10-31T08:38:09;100695.69;;;14.40;94.02
6349;BME280;3207;42.648;23.406;2022-10-31T08:40:36;100690.66;;;14.48;93.91
6349;BME280;3207;42.648;23.406;2022-10-31T08:43:05;100691.41;;;14.50;93.99
6349;BME280;3207;42.648;23.406;2022-10-31T08:45:34;100689.44;;;14.52;93.51
6349;BME280;3207;42.648;23.406;2022-10-31T08:48:02;100693.66;;;14.55;93.11
6349;BME280;3207;42.648;23.406;2022-10-31T08:50:30;100689.34;;;14.65;93.33
6349;BME280;3207;42.648;23.406;2022-10-31T08:53:04;100698.28;;;14.74;92.95
6349;BME280;3207;42.648;23.406;2022-10-31T08:55:33;100689.94;;;14.80;92.60
6349;BME280;3207;42.648;23.406;2022-10-31T08:58:02;100690.88;;;14.79;92.28
6349;BME280;3207;42.648;23.406;2022-10-31T09:00:30;100695.66;;;14.85;92.29
6349;BME280;3207;42.648;23.406;2022-10-31T09:02:59;100686.66;;;14.98;91.64
6349;BME280;3207;42.648;23.406;2022-10-31T09:05:26;100698.25;;;15.07;91.41
6349;BME280;3207;42.648;23.406;2022-10-31T09:07:55;100690.91;;;15.22;91.41
6349;BME280;3207;42.648;23.406;2022-10-31T09:10:25;100698.41;;;15.37;91.11
6349;BME280;3207;42.648;23.406;2022-10-31T09:12:55;100698.13;;;15.52;90.39
6349;BME280;3207;42.648;23.406;2022-10-31T09:15:22;100696.66;;;15.59;89.60
6349;BME280;3207;42.648;23.406;2022-10-31T09:17:49;100683.88;;;15.54;89.11
6349;BME280;3207;42.648;23.406;2022-10-31T09:20:16;100697.72;;;15.67;89.09
6349;BME280;3207;42.648;23.406;2022-10-31T09:22:43;100693.72;;;15.73;88.16
6349;BME280;3207;42.648;23.406;2022-10-31T09:25:09;100691.28;;;15.81;88.29
6349;BME280;3207;42.648;23.406;2022-10-31T09:27:38;100685.53;;;15.87;87.72
6349;BME280;3207;42.648;23.406;2022-10-31T09:30:05;100695.59;;;16.03;87.25
6349;BME280;3207;42.648;23.406;2022-10-31T09:32:32;100688.69;;;16.11;86.83
6349;BME280;3207;42.648;23.406;2022-10-31T09:35:00;100688.63;;;16.23;86.22
6349;BME280;3207;42.648;23.406;2022-10-31T09:37:27;100688.13;;;16.29;85.58
6349;BME280;3207;42.648;23.406;2022-10-31T09:39:54;100682.09;;;16.47;85.46
6349;BME280;3207;42.648;23.406;2022-10-31T09:42:33;100689.72;;;16.71;84.84
6349;BME280;3207;42.648;23.406;2022-10-31T09:45:07;100689.66;;;17.02;84.76
6349;BME280;3207;42.648;23.406;2022-10-31T09:47:47;100642.94;;;17.12;83.78
6349;BME280;3207;42.648;23.406;2022-10-31T09:50:19;100689.16;;;17.75;82.54
6349;BME280;3207;42.648;23.406;2022-10-31T09:52:53;100689.66;;;18.17;80.79
6349;BME280;3207;42.648;23.406;2022-10-31T09:55:26;100686.00;;;18.65;79.68
6349;BME280;3207;42.648;23.406;2022-10-31T09:57:58;100681.63;;;19.19;77.68
6349;BME280;3207;42.648;23.406;2022-10-31T10:00:27;100683.63;;;19.88;75.16
6349;BME280;3207;42.648;23.406;2022-10-31T10:02:57;100686.59;;;20.36;72.30
6349;BME280;3207;42.648;23.406;2022-10-31T10:05:31;100681.84;;;20.82;71.38
6349;BME280;3207;42.648;23.406;2022-10-31T10:08:02;100684.47;;;21.73;70.50
6349;BME280;3207;42.648;23.406;2022-10-31T10:10:40;100672.88;;;22.92;67.05
6349;BME280;3207;42.648;23.406;2022-10-31T10:13:22;100686.38;;;24.05;62.02
6349;BME280;3207;42.648;23.406;2022-10-31T10:16:03;100683.59;;;24.65;58.00
6349;BME280;3207;42.648;23.406;2022-10-31T10:18:47;100674.50;;;25.74;53.66
6349;BME280;3207;42.648;23.406;2022-10-31T10:21:27;100684.06;;;27.81;46.54
6349;BME280;3207;42.648;23.406;2022-10-31T10:24:09;100668.94;;;28.84;44.67
6349;BME280;3207;42.648;23.406;2022-10-31T10:26:43;100672.38;;;30.53;41.34
6349;BME280;3207;42.648;23.406;2022-10-31T10:29:23;100667.75;;;31.61;37.22
6349;BME280;3207;42.648;23.406;2022-10-31T10:31:53;100671.13;;;33.30;34.49
6349;BME280;3207;42.648;23.406;2022-10-31T10:34:24;100676.56;;;35.01;31.70
6349;BME280;3207;42.648;23.406;2022-10-31T10:36:57;100674.78;;;36.65;28.85
6349;BME280;3207;42.648;23.406;2022-10-31T10:39:29;100664.06;;;37.71;26.53
6349;BME280;3207;42.648;23.406;2022-10-31T10:41:59;100668.06;;;38.84;25.77
6349;BME280;3207;42.648;23.406;2022-10-31T10:44:45;100662.34;;;39.87;23.32
6349;BME280;3207;42.648;23.406;2022-10-31T10:47:41;100668.22;;;40.71;22.82
6349;BME280;3207;42.648;23.406;2022-10-31T10:50:13;100663.47;;;41.47;22.06
6349;BME280;3207;42.648;23.406;2022-10-31T10:52:46;100656.88;;;42.08;21.15
6349;BME280;3207;42.648;23.406;2022-10-31T10:55:24;100650.75;;;42.65;20.58
6349;BME280;3207;42.648;23.406;2022-10-31T10:57:57;100659.59;;;42.62;19.86
6349;BME280;3207;42.648;23.406;2022-10-31T11:00:27;100650.28;;;42.22;20.30
6349;BME280;3207;42.648;23.406;2022-10-31T11:02:57;100655.97;;;42.26;19.72
6349;BME280;3207;42.648;23.406;2022-10-31T11:05:30;100658.00;;;42.07;20.22
6349;BME280;3207;42.648;23.406;2022-10-31T11:07:59;100654.06;;;42.13;20.01
6349;BME280;3207;42.648;23.406;2022-10-31T11:10:26;100645.28;;;42.24;20.17
6349;BME280;3207;42.648;23.406;2022-10-31T11:13:14;100642.88;;;41.95;20.18
6349;BME280;3207;42.648;23.406;2022-10-31T11:15:52;100646.25;;;41.27;20.35
6349;BME280;3207;42.648;23.406;2022-10-31T11:18:22;100648.00;;;40.62;21.21
6349;BME280;3207;42.648;23.406;2022-10-31T11:20:52;100640.19;;;39.55;22.14
6349;BME280;3207;42.648;23.406;2022-10-31T11:23:20;100629.03;;;38.09;23.48
6349;BME280;3207;42.648;23.406;2022-10-31T11:25:49;100632.59;;;36.98;24.74
6349;BME280;3207;42.648;23.406;2022-10-31T11:28:16;100634.56;;;35.83;26.29
6349;BME280;3207;42.648;23.406;2022-10-31T11:30:46;100615.16;;;34.13;28.48
6349;BME280;3207;42.648;23.406;2022-10-31T11:33:19;100622.00;;;32.70;30.89
6349;BME280;3207;42.648;23.406;2022-10-31T11:35:50;100607.31;;;31.44;33.04
6349;BME280;3207;42.648;23.406;2022-10-31T11:38:18;100610.69;;;30.38;34.87
6349;BME280;3207;42.648;23.406;2022-10-31T11:40:53;100604.47;;;29.27;37.85
6349;BME280;3207;42.648;23.406;2022-10-31T11:43:21;100601.38;;;28.54;39.20
6349;BME280;3207;42.648;23.406;2022-10-31T11:45:49;100597.63;;;27.90;40.97
6349;BME280;3207;42.648;23.406;2022-10-31T11:48:18;100597.84;;;27.29;42.72
6349;BME280;3207;42.648;23.406;2022-10-31T11:50:50;100576.88;;;26.72;44.06
6349;BME280;3207;42.648;23.406;2022-10-31T11:53:20;100588.25;;;26.27;45.86
6349;BME280;3207;42.648;23.406;2022-10-31T11:56:01;100587.19;;;25.86;47.24
6349;BME280;3207;42.648;23.406;2022-10-31T11:58:28;100588.38;;;25.56;49.05
6349;BME280;3207;42.648;23.406;2022-10-31T12:00:56;100574.84;;;25.36;49.43
6349;BME280;3207;42.648;23.406;2022-10-31T12:03:40;100562.59;;;24.99;50.23
6349;BME280;3207;42.648;23.406;2022-10-31T12:06:14;100576.44;;;24.67;51.52
6349;BME280;3207;42.648;23.406;2022-10-31T12:08:44;100575.28;;;24.40;52.48
6349;BME280;3207;42.648;23.406;2022-10-31T12:11:25;100573.84;;;24.23;53.38
6349;BME280;3207;42.648;23.406;2022-10-31T12:14:05;100560.47;;;23.93;54.31
6349;BME280;3207;42.648;23.406;2022-10-31T12:16:38;100572.78;;;23.65;55.17
6349;BME280;3207;42.648;23.406;2022-10-31T12:19:14;100561.28;;;23.42;56.61
6349;BME280;3207;42.648;23.406;2022-10-31T12:22:02;100559.72;;;23.32;56.97
6349;BME280;3207;42.648;23.406;2022-10-31T12:24:45;100558.47;;;23.20;57.32
6349;BME280;3207;42.648;23.406;2022-10-31T12:27:24;100551.56;;;23.11;57.53
6349;BME280;3207;42.648;23.406;2022-10-31T12:30:04;100555.66;;;22.99;58.44
6349;BME280;3207;42.648;23.406;2022-10-31T12:32:43;100539.66;;;22.99;58.99
6349;BME280;3207;42.648;23.406;2022-10-31T12:35:24;100547.47;;;23.00;58.62
6349;BME280;3207;42.648;23.406;2022-10-31T12:38:16;100547.03;;;22.97;59.08
6349;BME280;3207;42.648;23.406;2022-10-31T12:41:02;100541.78;;;22.81;59.30
6349;BME280;3207;42.648;23.406;2022-10-31T12:43:41;100545.22;;;22.67;60.49
6349;BME280;3207;42.648;23.406;2022-10-31T12:46:18;100535.97;;;22.54;60.89
6349;BME280;3207;42.648;23.406;2022-10-31T12:49:12;100541.56;;;22.59;60.90
6349;BME280;3207;42.648;23.406;2022-10-31T12:51:50;100535.34;;;22.44;61.44
6349;BME280;3207;42.648;23.406;2022-10-31T12:54:35;100528.09;;;22.30;61.96
6349;BME280;3207;42.648;23.406;2022-10-31T12:57:13;100533.13;;;22.17;62.59
6349;BME280;3207;42.648;23.406;2022-10-31T12:59:45;100532.53;;;22.07;62.96
6349;BME280;3207;42.648;23.406;2022-10-31T13:02:18;100540.56;;;21.90;63.64
6349;BME280;3207;42.648;23.406;2022-10-31T13:04:50;100521.78;;;21.76;64.20
6349;BME280;3207;42.648;23.406;2022-10-31T13:07:23;100522.97;;;21.65;64.49
6349;BME280;3207;42.648;23.406;2022-10-31T13:09:56;100517.84;;;21.55;65.80
6349;BME280;3207;42.648;23.406;2022-10-31T13:12:29;100516.34;;;21.61;66.04
6349;BME280;3207;42.648;23.406;2022-10-31T13:14:58;100515.66;;;21.67;65.68